sensor_id;sensor_type;location;lat;lon;timestamp;pressure;altitude;pressure_sealevel;temperature;humidity
69257;BME280;56376;53.356;-1.748;2023-03-01T00:00:49;101452.44;;;4.66;100.00
69257;BME280;56376;53.356;-1.748;2023-03-01T00:03:15;101449.75;;;4.63;100.00
69257;BME280;56376;53.356;-1.748;2023-03-01T00:05:45;101452.38;;;4.65;100.00
69257;BME280;56376;53.356;-1.748;2023-03-01T00:08:11;101448.06;;;4.64;100.00
69257;BME280;56376;53.356;-1.748;2023-03-01T00:10:36;101448.16;;;4.70;100.00
69257;BME280;56376;53.356;-1.748;2023-03-01T00:13:01;101457.72;;;4.72;100.00
69257;BME280;56376;53.356;-1.748;2023-03-01T00:15:27;101462.78;;;4.66;100.00
69257;BME280;56376;53.356;-1.748;2023-03-01T00:17:53;101455.06;;;4.69;100.00
69257;BME280;56376;53.356;-1.748;2023-03-01T00:20:18;101470.47;;;4.62;100.00
69257;BME280;56376;53.356;-1.748;2023-03-01T00:22:44;101454.78;;;4.55;100.00
69257;BME280;56376;53.356;-1.748;2023-03-01T00:25:09;101459.91;;;4.52;100.00
69257;BME280;56376;53.356;-1.748;2023-03-01T00:27:34;101458.25;;;4.54;100.00
69257;BME280;56376;53.356;-1.748;2023-03-01T00:30:00;101446.13;;;4.53;100.00
69257;BME280;56376;53.356;-1.748;2023-03-01T00:32:25;101447.88;;;4.54;100.00
69257;BME280;56376;53.356;-1.748;2023-03-01T00:34:50;101449.63;;;4.55;100.00
69257;BME280;56376;53.356;-1.748;2023-03-01T00:37:23;101443.63;;;4.58;100.00
69257;BME280;56376;53.356;-1.748;2023-03-01T00:39:49;101439.34;;;4.59;100.00
69257;BME280;56376;53.356;-1.748;2023-03-01T00:42:15;101434.19;;;4.60;100.00
69257;BME280;56376;53.356;-1.748;2023-03-01T00:44:41;101438.53;;;4.61;100.00
69257;BME280;56376;53.356;-1.748;2023-03-01T00:47:06;101423.06;;;4.66;100.00
69257;BME280;56376;53.356;-1.748;2023-03-01T00:49:31;101442.00;;;4.63;100.00
69257;BME280;56376;53.356;-1.748;2023-03-01T00:51:57;101430.72;;;4.60;100.00
69257;BME280;56376;53.356;-1.748;2023-03-01T00:54:22;101426.38;;;4.57;100.00
69257;BME280;56376;53.356;-1.748;2023-03-01T00:56:47;101432.50;;;4.62;100.00
69257;BME280;56376;53.356;-1.748;2023-03-01T00:59:13;101416.88;;;4.58;100.00
69257;BME280;56376;53.356;-1.748;2023-03-01T01:01:38;101427.22;;;4.58;100.00
69257;BME280;56376;53.356;-1.748;2023-03-01T01:04:10;101426.38;;;4.57;100.00
69257;BME280;56376;53.356;-1.748;2023-03-01T01:06:39;101428.09;;;4.58;100.00
69257;BME280;56376;53.356;-1.748;2023-03-01T01:09:06;101421.13;;;4.54;100.00
69257;BME280;56376;53.356;-1.748;2023-03-01T01:11:32;101415.88;;;4.51;100.00
69257;BME280;56376;53.356;-1.748;2023-03-01T01:13:59;101421.00;;;4.48;100.00
69257;BME280;56376;53.356;-1.748;2023-03-01T01:16:26;101412.41;;;4.49;100.00
69257;BME280;56376;53.356;-1.748;2023-03-01T01:18:52;101416.66;;;4.45;100.00
69257;BME280;56376;53.356;-1.748;2023-03-01T01:21:20;101400.31;;;4.48;100.00
69257;BME280;56376;53.356;-1.748;2023-03-01T01:23:47;101413.28;;;4.49;100.00
69257;BME280;56376;53.356;-1.748;2023-03-01T01:26:18;101401.16;;;4.47;100.00
69257;BME280;56376;53.356;-1.748;2023-03-01T01:28:44;101390.88;;;4.50;100.00
69257;BME280;56376;53.356;-1.748;2023-03-01T01:31:10;101397.72;;;4.46;100.00
69257;BME280;56376;53.356;-1.748;2023-03-01T01:33:35;101403.69;;;4.44;100.00
69257;BME280;56376;53.356;-1.748;2023-03-01T01:36:03;101397.63;;;4.43;100.00
69257;BME280;56376;53.356;-1.748;2023-03-01T01:38:28;101390.78;;;4.45;100.00
69257;BME280;56376;53.356;-1.748;2023-03-01T01:40:54;101392.34;;;4.37;100.00
69257;BME280;56376;53.356;-1.748;2023-03-01T01:43:23;101392.41;;;4.39;100.00
69257;BME280;56376;53.356;-1.748;2023-03-01T01:45:49;101367.34;;;4.38;100.00
69257;BME280;56376;53.356;-1.748;2023-03-01T01:48:22;101367.41;;;4.41;100.00
69257;BME280;56376;53.356;-1.748;2023-03-01T01:50:57;101357.03;;;4.39;100.00
69257;BME280;56376;53.356;-1.748;2023-03-01T01:53:24;101361.25;;;4.36;100.00
69257;BME280;56376;53.356;-1.748;2023-03-01T01:55:56;101356.91;;;4.31;100.00
69257;BME280;56376;53.356;-1.748;2023-03-01T01:58:24;101361.22;;;4.32;100.00
69257;BME280;56376;53.356;-1.748;2023-03-01T02:00:50;101357.81;;;4.35;100.00
69257;BME280;56376;53.356;-1.748;2023-03-01T02:03:23;101367.28;;;4.34;100.00
69257;BME280;56376;53.356;-1.748;2023-03-01T02:05:58;101350.84;;;4.31;100.00
69257;BME280;56376;53.356;-1.748;2023-03-01T02:08:28;101349.97;;;4.30;100.00
69257;BME280;56376;53.356;-1.748;2023-03-01T02:10:55;101339.63;;;4.30;100.00
69257;BME280;56376;53.356;-1.748;2023-03-01T02:13:21;101331.88;;;4.32;100.00
69257;BME280;56376;53.356;-1.748;2023-03-01T02:15:47;101341.38;;;4.33;100.00
69257;BME280;56376;53.356;-1.748;2023-03-01T02:18:14;101342.28;;;4.33;100.00
69257;BME280;56376;53.356;-1.748;2023-03-01T02:23:42;101318.13;;;4.34;100.00
69257;BME280;56376;53.356;-1.748;2023-03-01T02:26:15;101326.81;;;4.37;100.00
69257;BME280;56376;53.356;-1.748;2023-03-01T02:28:44;101329.34;;;4.33;100.00
69257;BME280;56376;53.356;-1.748;2023-03-01T02:31:15;101317.16;;;4.28;100.00
69257;BME280;56376;53.356;-1.748;2023-03-01T02:34:00;101325.84;;;4.31;100.00
69257;BME280;56376;53.356;-1.748;2023-03-01T02:36:33;101321.50;;;4.29;100.00
69257;BME280;56376;53.356;-1.748;2023-03-01T02:39:02;101318.09;;;4.31;100.00
69257;BME280;56376;53.356;-1.748;2023-03-01T02:41:31;101319.81;;;4.32;100.00
69257;BME280;56376;53.356;-1.748;2023-03-01T02:43:57;101310.38;;;4.34;100.00
69257;BME280;56376;53.356;-1.748;2023-03-01T02:46:25;101332.75;;;4.32;100.00
69257;BME280;56376;53.356;-1.748;2023-03-01T02:48:54;101313.88;;;4.37;100.00
69257;BME280;56376;53.356;-1.748;2023-03-01T02:54:23;101322.44;;;4.36;100.00
69257;BME280;56376;53.356;-1.748;2023-03-01T02:56:50;101324.16;;;4.33;100.00
69257;BME280;56376;53.356;-1.748;2023-03-01T02:59:20;101318.09;;;4.31;100.00
69257;BME280;56376;53.356;-1.748;2023-03-01T03:01:46;101324.91;;;4.26;100.00
69257;BME280;56376;53.356;-1.748;2023-03-01T03:04:15;101310.16;;;4.22;100.00
69257;BME280;56376;53.356;-1.748;2023-03-01T03:06:46;101305.84;;;4.23;100.00
69257;BME280;56376;53.356;-1.748;2023-03-01T03:09:13;101299.84;;;4.24;100.00
69257;BME280;56376;53.356;-1.748;2023-03-01T03:11:39;101301.47;;;4.19;100.00
69257;BME280;56376;53.356;-1.748;2023-03-01T03:14:06;101298.09;;;4.23;100.00
69257;BME280;56376;53.356;-1.748;2023-03-01T03:16:41;101302.41;;;4.22;100.00
69257;BME280;56376;53.356;-1.748;2023-03-01T03:19:06;101304.97;;;4.22;100.00
69257;BME280;56376;53.356;-1.748;2023-03-01T03:21:32;101299.84;;;4.25;100.00
69257;BME280;56376;53.356;-1.748;2023-03-01T03:23:58;101289.41;;;4.19;100.00
69257;BME280;56376;53.356;-1.748;2023-03-01T03:26:23;101293.59;;;4.12;100.00
69257;BME280;56376;53.356;-1.748;2023-03-01T03:28:49;101295.31;;;4.12;100.00
69257;BME280;56376;53.356;-1.748;2023-03-01T03:31:14;101303.06;;;4.12;100.00
69257;BME280;56376;53.356;-1.748;2023-03-01T03:33:39;101292.69;;;4.10;100.00
69257;BME280;56376;53.356;-1.748;2023-03-01T03:36:05;101284.88;;;4.06;100.00
69257;BME280;56376;53.356;-1.748;2023-03-01T03:38:31;101290.88;;;4.05;100.00
69257;BME280;56376;53.356;-1.748;2023-03-01T03:41:02;101294.31;;;4.05;100.00
69257;BME280;56376;53.356;-1.748;2023-03-01T03:43:29;101290.13;;;4.12;100.00
69257;BME280;56376;53.356;-1.748;2023-03-01T03:45:55;101282.38;;;4.12;100.00
69257;BME280;56376;53.356;-1.748;2023-03-01T03:48:22;101278.94;;;4.13;100.00
69257;BME280;56376;53.356;-1.748;2023-03-01T03:50:53;101273.84;;;4.16;100.00
69257;BME280;56376;53.356;-1.748;2023-03-01T03:53:20;101277.28;;;4.17;100.00
69257;BME280;56376;53.356;-1.748;2023-03-01T03:55:46;101267.03;;;4.21;100.00
69257;BME280;56376;53.356;-1.748;2023-03-01T03:58:15;101272.94;;;4.16;100.00
69257;BME280;56376;53.356;-1.748;2023-03-01T04:00:43;101270.31;;;4.11;100.00
69257;BME280;56376;53.356;-1.748;2023-03-01T04:03:10;101268.59;;;4.11;100.00
69257;BME280;56376;53.356;-1.748;2023-03-01T04:05:37;101263.38;;;4.10;100.00
69257;BME280;56376;53.356;-1.748;2023-03-01T04:08:03;101260.78;;;4.10;100.00
69257;BME280;56376;53.356;-1.748;2023-03-01T04:10:44;101253.03;;;4.10;100.00
69257;BME280;56376;53.356;-1.748;2023-03-01T04:13:12;101250.44;;;4.08;100.00
69257;BME280;56376;53.356;-1.748;2023-03-01T04:15:39;101267.63;;;4.08;100.00
69257;BME280;56376;53.356;-1.748;2023-03-01T04:18:05;101258.13;;;4.05;100.00
69257;BME280;56376;53.356;-1.748;2023-03-01T04:20:33;101258.19;;;4.10;100.00
69257;BME280;56376;53.356;-1.748;2023-03-01T04:23:02;101275.41;;;4.08;100.00
69257;BME280;56376;53.356;-1.748;2023-03-01T04:25:44;101264.22;;;4.09;100.00
69257;BME280;56376;53.356;-1.748;2023-03-01T04:28:10;101254.66;;;4.05;100.00
69257;BME280;56376;53.356;-1.748;2023-03-01T04:30:36;101265.91;;;4.07;100.00
69257;BME280;56376;53.356;-1.748;2023-03-01T04:33:06;101259.03;;;4.07;100.00
69257;BME280;56376;53.356;-1.748;2023-03-01T04:35:32;101266.81;;;4.09;100.00
69257;BME280;56376;53.356;-1.748;2023-03-01T04:37:58;101259.06;;;4.09;100.00
69257;BME280;56376;53.356;-1.748;2023-03-01T04:40:24;101253.75;;;4.03;100.00
69257;BME280;56376;53.356;-1.748;2023-03-01T04:42:50;101224.50;;;4.04;100.00
69257;BME280;56376;53.356;-1.748;2023-03-01T04:45:15;101233.97;;;4.03;100.00
69257;BME280;56376;53.356;-1.748;2023-03-01T04:47:42;101247.75;;;4.04;100.00
69257;BME280;56376;53.356;-1.748;2023-03-01T04:50:13;101224.50;;;4.05;100.00
69257;BME280;56376;53.356;-1.748;2023-03-01T04:52:39;101229.66;;;4.04;100.00
69257;BME280;56376;53.356;-1.748;2023-03-01T04:55:05;101233.97;;;4.03;100.00
69257;BME280;56376;53.356;-1.748;2023-03-01T04:57:31;101235.66;;;4.03;100.00
69257;BME280;56376;53.356;-1.748;2023-03-01T04:59:57;101231.34;;;4.02;100.00
69257;BME280;56376;53.356;-1.748;2023-03-01T05:02:22;101231.44;;;4.06;100.00
69257;BME280;56376;53.356;-1.748;2023-03-01T05:04:47;101233.97;;;4.03;100.00
69257;BME280;56376;53.356;-1.748;2023-03-01T05:07:13;101240.78;;;3.98;100.00
69257;BME280;56376;53.356;-1.748;2023-03-01T05:09:45;101238.28;;;4.04;100.00
69257;BME280;56376;53.356;-1.748;2023-03-01T05:12:11;101235.66;;;4.03;100.00
69257;BME280;56376;53.356;-1.748;2023-03-01T05:14:37;101236.59;;;4.06;100.00
69257;BME280;56376;53.356;-1.748;2023-03-01T05:17:03;101246.94;;;4.08;100.00
69257;BME280;56376;53.356;-1.748;2023-03-01T05:19:29;101240.91;;;4.06;100.00
69257;BME280;56376;53.356;-1.748;2023-03-01T05:21:56;101232.25;;;4.04;100.00
69257;BME280;56376;53.356;-1.748;2023-03-01T05:24:33;101235.50;;;3.94;100.00
69257;BME280;56376;53.356;-1.748;2023-03-01T05:27:00;101226.91;;;3.95;100.00
69257;BME280;56376;53.356;-1.748;2023-03-01T05:29:28;101231.25;;;3.97;100.00
69257;BME280;56376;53.356;-1.748;2023-03-01T05:31:56;101230.34;;;3.94;100.00
69257;BME280;56376;53.356;-1.748;2023-03-01T05:34:32;101225.09;;;3.90;100.00
69257;BME280;56376;53.356;-1.748;2023-03-01T05:36:57;101220.06;;;3.97;100.00
69257;BME280;56376;53.356;-1.748;2023-03-01T05:39:25;101217.44;;;3.95;100.00
69257;BME280;56376;53.356;-1.748;2023-03-01T05:41:58;101213.03;;;3.89;100.00
69257;BME280;56376;53.356;-1.748;2023-03-01T05:44:25;101210.47;;;3.91;100.00
69257;BME280;56376;53.356;-1.748;2023-03-01T05:46:51;101207.00;;;3.90;100.00
69257;BME280;56376;53.356;-1.748;2023-03-01T05:49:16;101219.13;;;3.93;100.00
69257;BME280;56376;53.356;-1.748;2023-03-01T05:51:43;101214.75;;;3.90;100.00
69257;BME280;56376;53.356;-1.748;2023-03-01T05:54:09;101221.63;;;3.88;100.00
69257;BME280;56376;53.356;-1.748;2023-03-01T05:56:36;101219.09;;;3.92;100.00
69257;BME280;56376;53.356;-1.748;2023-03-01T05:59:03;101231.97;;;3.88;100.00
69257;BME280;56376;53.356;-1.748;2023-03-01T06:01:30;101225.03;;;3.87;100.00
69257;BME280;56376;53.356;-1.748;2023-03-01T06:03:55;101235.44;;;3.90;100.00
69257;BME280;56376;53.356;-1.748;2023-03-01T06:06:22;101228.50;;;3.88;100.00
69257;BME280;56376;53.356;-1.748;2023-03-01T06:08:47;101221.66;;;3.90;100.00
69257;BME280;56376;53.356;-1.748;2023-03-01T06:11:13;101213.88;;;3.88;100.00
69257;BME280;56376;53.356;-1.748;2023-03-01T06:13:38;101219.06;;;3.90;100.00
69257;BME280;56376;53.356;-1.748;2023-03-01T06:16:05;101223.38;;;3.89;100.00
69257;BME280;56376;53.356;-1.748;2023-03-01T06:18:31;101229.38;;;3.88;100.00
69257;BME280;56376;53.356;-1.748;2023-03-01T06:20:56;101226.81;;;3.90;100.00
69257;BME280;56376;53.356;-1.748;2023-03-01T06:23:23;101222.50;;;3.90;100.00
69257;BME280;56376;53.356;-1.748;2023-03-01T06:25:49;101230.34;;;3.94;100.00
69257;BME280;56376;53.356;-1.748;2023-03-01T06:28:14;101238.03;;;3.90;100.00
69257;BME280;56376;53.356;-1.748;2023-03-01T06:30:40;101238.88;;;3.89;100.00
69257;BME280;56376;53.356;-1.748;2023-03-01T06:33:05;101231.22;;;3.94;100.00
69257;BME280;56376;53.356;-1.748;2023-03-01T06:35:30;101232.88;;;3.92;100.00
69257;BME280;56376;53.356;-1.748;2023-03-01T06:37:57;101238.97;;;3.94;100.00
69257;BME280;56376;53.356;-1.748;2023-03-01T06:40:23;101233.84;;;3.96;100.00
69257;BME280;56376;53.356;-1.748;2023-03-01T06:42:50;101223.41;;;3.93;100.00
69257;BME280;56376;53.356;-1.748;2023-03-01T06:45:16;101228.59;;;3.93;100.00
69257;BME280;56376;53.356;-1.748;2023-03-01T06:47:42;101229.47;;;3.93;100.00
69257;BME280;56376;53.356;-1.748;2023-03-01T06:50:08;101231.16;;;3.91;100.00
69257;BME280;56376;53.356;-1.748;2023-03-01T06:52:33;101232.06;;;3.95;100.00
69257;BME280;56376;53.356;-1.748;2023-03-01T06:54:59;101226.94;;;3.96;100.00
69257;BME280;56376;53.356;-1.748;2023-03-01T06:57:25;101226.09;;;3.97;100.00
69257;BME280;56376;53.356;-1.748;2023-03-01T06:59:50;101219.91;;;3.90;100.00
69257;BME280;56376;53.356;-1.748;2023-03-01T07:02:16;101221.69;;;3.92;100.00
69257;BME280;56376;53.356;-1.748;2023-03-01T07:04:42;101237.19;;;3.92;100.00
69257;BME280;56376;53.356;-1.748;2023-03-01T07:07:07;101227.75;;;3.95;100.00
69257;BME280;56376;53.356;-1.748;2023-03-01T07:09:33;101221.63;;;3.88;100.00
69257;BME280;56376;53.356;-1.748;2023-03-01T07:11:58;101232.72;;;3.83;100.00
69257;BME280;56376;53.356;-1.748;2023-03-01T07:14:24;101231.84;;;3.82;100.00
69257;BME280;56376;53.356;-1.748;2023-03-01T07:16:51;101236.19;;;3.85;100.00
69257;BME280;56376;53.356;-1.748;2023-03-01T07:19:18;101252.56;;;3.85;100.00
69257;BME280;56376;53.356;-1.748;2023-03-01T07:21:43;101235.38;;;3.86;100.00
69257;BME280;56376;53.356;-1.748;2023-03-01T07:24:09;101233.66;;;3.88;100.00
69257;BME280;56376;53.356;-1.748;2023-03-01T07:26:35;101232.06;;;3.93;100.00
69257;BME280;56376;53.356;-1.748;2023-03-01T07:29:03;101234.56;;;3.90;100.00
69257;BME280;56376;53.356;-1.748;2023-03-01T07:31:29;101228.59;;;3.93;100.00
69257;BME280;56376;53.356;-1.748;2023-03-01T07:33:54;101239.00;;;3.96;100.00
69257;BME280;56376;53.356;-1.748;2023-03-01T07:36:20;101231.25;;;3.97;100.00
69257;BME280;56376;53.356;-1.748;2023-03-01T07:38:45;101228.59;;;3.93;100.00
69257;BME280;56376;53.356;-1.748;2023-03-01T07:41:10;101239.00;;;3.96;100.00
69257;BME280;56376;53.356;-1.748;2023-03-01T07:43:36;101226.94;;;3.96;100.00
69257;BME280;56376;53.356;-1.748;2023-03-01T07:46:03;101228.59;;;3.93;100.00
69257;BME280;56376;53.356;-1.748;2023-03-01T07:48:30;101240.69;;;3.94;100.00
69257;BME280;56376;53.356;-1.748;2023-03-01T07:51:04;101234.66;;;3.95;100.00
69257;BME280;56376;53.356;-1.748;2023-03-01T07:53:30;101233.06;;;4.01;100.00
69257;BME280;56376;53.356;-1.748;2023-03-01T07:56:03;101249.47;;;4.03;100.00
69257;BME280;56376;53.356;-1.748;2023-03-01T07:58:29;101240.81;;;4.03;100.00
69257;BME280;56376;53.356;-1.748;2023-03-01T08:00:54;101240.00;;;4.04;100.00
69257;BME280;56376;53.356;-1.748;2023-03-01T08:03:19;101238.31;;;4.07;100.00
69257;BME280;56376;53.356;-1.748;2023-03-01T08:05:45;101252.97;;;4.07;100.00
69257;BME280;56376;53.356;-1.748;2023-03-01T08:08:10;101240.91;;;4.06;100.00
69257;BME280;56376;53.356;-1.748;2023-03-01T08:10:36;101238.28;;;4.04;100.00
69257;BME280;56376;53.356;-1.748;2023-03-01T08:13:02;101235.69;;;4.04;100.00
69257;BME280;56376;53.356;-1.748;2023-03-01T08:15:27;101231.38;;;4.05;100.00
69257;BME280;56376;53.356;-1.748;2023-03-01T08:17:52;101232.34;;;4.10;100.00
69257;BME280;56376;53.356;-1.748;2023-03-01T08:20:18;101240.16;;;4.13;100.00
69257;BME280;56376;53.356;-1.748;2023-03-01T08:22:44;101241.88;;;4.12;100.00
69257;BME280;56376;53.356;-1.748;2023-03-01T08:25:09;101243.69;;;4.18;100.00
69257;BME280;56376;53.356;-1.748;2023-03-01T08:27:35;101235.00;;;4.15;100.00
69257;BME280;56376;53.356;-1.748;2023-03-01T08:30:00;101230.69;;;4.14;100.00
69257;BME280;56376;53.356;-1.748;2023-03-01T08:32:25;101235.06;;;4.16;100.00
69257;BME280;56376;53.356;-1.748;2023-03-01T08:34:51;101240.28;;;4.21;100.00
69257;BME280;56376;53.356;-1.748;2023-03-01T08:37:16;101227.38;;;4.22;100.00
69257;BME280;56376;53.356;-1.748;2023-03-01T08:39:42;101236.91;;;4.25;100.00
69257;BME280;56376;53.356;-1.748;2023-03-01T08:42:07;101239.44;;;4.23;100.00
69257;BME280;56376;53.356;-1.748;2023-03-01T08:44:32;101225.00;;;4.34;100.00
69257;BME280;56376;53.356;-1.748;2023-03-01T08:46:58;101237.91;;;4.33;100.00
69257;BME280;56376;53.356;-1.748;2023-03-01T08:49:25;101243.06;;;4.31;100.00
69257;BME280;56376;53.356;-1.748;2023-03-01T08:51:50;101236.13;;;4.29;100.00
69257;BME280;56376;53.356;-1.748;2023-03-01T08:54:18;101242.97;;;4.27;100.00
69257;BME280;56376;53.356;-1.748;2023-03-01T08:56:45;101243.03;;;4.28;100.00
69257;BME280;56376;53.356;-1.748;2023-03-01T08:59:11;101238.72;;;4.29;100.00
69257;BME280;56376;53.356;-1.748;2023-03-01T09:01:37;101234.44;;;4.31;100.00
69257;BME280;56376;53.356;-1.748;2023-03-01T09:04:03;101224.09;;;4.32;100.00
69257;BME280;56376;53.356;-1.748;2023-03-01T09:06:33;101229.28;;;4.32;100.00
69257;BME280;56376;53.356;-1.748;2023-03-01T09:08:59;101234.50;;;4.36;100.00
69257;BME280;56376;53.356;-1.748;2023-03-01T09:11:24;101229.44;;;4.42;100.00
69257;BME280;56376;53.356;-1.748;2023-03-01T09:13:50;101233.75;;;4.41;100.00
69257;BME280;56376;53.356;-1.748;2023-03-01T09:16:18;101239.84;;;4.46;100.00
69257;BME280;56376;53.356;-1.748;2023-03-01T09:18:45;101227.66;;;4.41;100.00
69257;BME280;56376;53.356;-1.748;2023-03-01T09:21:13;101222.63;;;4.48;100.00
69257;BME280;56376;53.356;-1.748;2023-03-01T09:23:44;101231.19;;;4.46;100.00
69257;BME280;56376;53.356;-1.748;2023-03-01T09:26:13;101231.19;;;4.46;100.00
69257;BME280;56376;53.356;-1.748;2023-03-01T09:28:40;101226.03;;;4.46;100.00
69257;BME280;56376;53.356;-1.748;2023-03-01T09:31:09;101234.69;;;4.48;100.00
69257;BME280;56376;53.356;-1.748;2023-03-01T09:33:38;101245.91;;;4.47;100.00
69257;BME280;56376;53.356;-1.748;2023-03-01T09:36:06;101233.78;;;4.46;100.00
69257;BME280;56376;53.356;-1.748;2023-03-01T09:38:33;101225.28;;;4.51;100.00
69257;BME280;56376;53.356;-1.748;2023-03-01T09:41:00;101218.41;;;4.55;100.00
69257;BME280;56376;53.356;-1.748;2023-03-01T09:46:07;101212.56;;;4.67;100.00
69257;BME280;56376;53.356;-1.748;2023-03-01T09:48:51;101199.88;;;4.85;100.00
69257;BME280;56376;53.356;-1.748;2023-03-01T09:51:23;101203.53;;;5.01;100.00
69257;BME280;56376;53.356;-1.748;2023-03-01T09:53:50;101196.75;;;5.09;100.00
69257;BME280;56376;53.356;-1.748;2023-03-01T09:56:27;101176.03;;;5.09;100.00
69257;BME280;56376;53.356;-1.748;2023-03-01T10:09:43;101148.91;;;5.59;100.00
69257;BME280;56376;53.356;-1.748;2023-03-01T10:12:15;101158.50;;;5.64;100.00
69257;BME280;56376;53.356;-1.748;2023-03-01T10:17:17;101155.09;;;5.72;100.00
69257;BME280;56376;53.356;-1.748;2023-03-01T10:19:46;101153.38;;;5.74;100.00
69257;BME280;56376;53.356;-1.748;2023-03-01T10:22:26;101144.78;;;5.75;100.00
69257;BME280;56376;53.356;-1.748;2023-03-01T10:24:54;101152.53;;;5.75;100.00
69257;BME280;56376;53.356;-1.748;2023-03-01T10:27:29;101151.66;;;5.74;100.00
69257;BME280;56376;53.356;-1.748;2023-03-01T10:30:10;101164.66;;;5.79;100.00
69257;BME280;56376;53.356;-1.748;2023-03-01T10:32:39;101160.38;;;5.81;100.00
69257;BME280;56376;53.356;-1.748;2023-03-01T10:35:26;101143.97;;;5.83;100.00
69257;BME280;56376;53.356;-1.748;2023-03-01T10:40:24;101162.16;;;5.85;100.00
69257;BME280;56376;53.356;-1.748;2023-03-01T10:42:49;101151.72;;;5.82;100.00
69257;BME280;56376;53.356;-1.748;2023-03-01T10:50:40;101144.81;;;5.81;100.00
69257;BME280;56376;53.356;-1.748;2023-03-01T10:53:19;101132.81;;;5.92;100.00
69257;BME280;56376;53.356;-1.748;2023-03-01T10:55:46;101141.63;;;6.10;100.00
69257;BME280;56376;53.356;-1.748;2023-03-01T11:03:21;101129.72;;;6.39;100.00
69257;BME280;56376;53.356;-1.748;2023-03-01T11:05:53;101125.44;;;6.43;100.00
69257;BME280;56376;53.356;-1.748;2023-03-01T11:08:35;101118.50;;;6.46;100.00
69257;BME280;56376;53.356;-1.748;2023-03-01T11:13:38;101113.28;;;6.42;100.00
69257;BME280;56376;53.356;-1.748;2023-03-01T11:16:12;101131.47;;;6.40;100.00
69257;BME280;56376;53.356;-1.748;2023-03-01T11:18:38;101098.56;;;6.36;100.00
69257;BME280;56376;53.356;-1.748;2023-03-01T11:21:05;101094.19;;;6.27;100.00
69257;BME280;56376;53.356;-1.748;2023-03-01T11:23:34;101105.31;;;6.14;100.00
69257;BME280;56376;53.356;-1.748;2023-03-01T11:26:05;101108.78;;;6.12;100.00
69257;BME280;56376;53.356;-1.748;2023-03-01T11:28:36;101110.50;;;6.08;100.00
69257;BME280;56376;53.356;-1.748;2023-03-01T11:31:06;101089.72;;;6.10;100.00
69257;BME280;56376;53.356;-1.748;2023-03-01T11:36:51;101117.41;;;6.07;100.00
69257;BME280;56376;53.356;-1.748;2023-03-01T11:39:37;101112.97;;;5.94;100.00
69257;BME280;56376;53.356;-1.748;2023-03-01T11:42:15;101124.09;;;5.85;100.00
69257;BME280;56376;53.356;-1.748;2023-03-01T11:44:44;101121.50;;;5.82;100.00
69257;BME280;56376;53.356;-1.748;2023-03-01T12:09:26;101067.28;;;6.13;100.00
69257;BME280;56376;53.356;-1.748;2023-03-01T12:17:19;101067.31;;;6.19;100.00
69257;BME280;56376;53.356;-1.748;2023-03-01T12:22:30;101045.69;;;6.22;100.00
69257;BME280;56376;53.356;-1.748;2023-03-01T12:26:16;101045.75;;;6.31;100.00
69257;BME280;56376;53.356;-1.748;2023-03-01T12:28:22;101033.72;;;6.45;100.00
69257;BME280;56376;53.356;-1.748;2023-03-01T12:38:42;101024.25;;;6.57;100.00
69257;BME280;56376;53.356;-1.748;2023-03-01T12:41:29;101024.25;;;6.54;100.00
69257;BME280;56376;53.356;-1.748;2023-03-01T12:49:15;101019.88;;;6.43;100.00
69257;BME280;56376;53.356;-1.748;2023-03-01T12:51:46;101006.88;;;6.40;100.00
69257;BME280;56376;53.356;-1.748;2023-03-01T12:54:18;101006.88;;;6.39;100.00
69257;BME280;56376;53.356;-1.748;2023-03-01T12:56:48;101005.19;;;6.45;100.00
69257;BME280;56376;53.356;-1.748;2023-03-01T12:59:29;101000.81;;;6.44;100.00
69257;BME280;56376;53.356;-1.748;2023-03-01T13:02:24;100998.22;;;6.41;100.00
69257;BME280;56376;53.356;-1.748;2023-03-01T13:05:18;100993.94;;;6.53;100.00
69257;BME280;56376;53.356;-1.748;2023-03-01T13:07:50;100980.13;;;6.67;100.00
69257;BME280;56376;53.356;-1.748;2023-03-01T13:17:49;100963.75;;;7.41;100.00
69257;BME280;56376;53.356;-1.748;2023-03-01T13:20:20;100947.31;;;7.46;100.00
69257;BME280;56376;53.356;-1.748;2023-03-01T13:22:46;100949.91;;;7.48;100.00
69257;BME280;56376;53.356;-1.748;2023-03-01T13:25:15;100930.84;;;7.49;100.00
69257;BME280;56376;53.356;-1.748;2023-03-01T13:27:42;100925.66;;;7.36;100.00
69257;BME280;56376;53.356;-1.748;2023-03-01T13:35:59;100907.47;;;7.20;100.00
69257;BME280;56376;53.356;-1.748;2023-03-01T13:38:45;100907.44;;;7.18;100.00
69257;BME280;56376;53.356;-1.748;2023-03-01T13:41:11;100921.31;;;7.15;100.00
69257;BME280;56376;53.356;-1.748;2023-03-01T13:43:40;100911.81;;;7.04;100.00
69257;BME280;56376;53.356;-1.748;2023-03-01T13:46:27;100909.22;;;7.01;100.00
69257;BME280;56376;53.356;-1.748;2023-03-01T13:48:55;100895.34;;;6.96;100.00
69257;BME280;56376;53.356;-1.748;2023-03-01T13:51:25;100887.56;;;6.94;100.00
69257;BME280;56376;53.356;-1.748;2023-03-01T13:53:51;100890.16;;;6.99;100.00
69257;BME280;56376;53.356;-1.748;2023-03-01T13:56:23;100885.84;;;7.01;100.00
69257;BME280;56376;53.356;-1.748;2023-03-01T13:58:56;100889.28;;;7.07;100.00
69257;BME280;56376;53.356;-1.748;2023-03-01T14:01:27;100877.16;;;7.23;100.00
69257;BME280;56376;53.356;-1.748;2023-03-01T14:03:54;100869.34;;;7.34;100.00
69257;BME280;56376;53.356;-1.748;2023-03-01T14:06:28;100884.03;;;7.43;100.00
69257;BME280;56376;53.356;-1.748;2023-03-01T14:09:10;100877.97;;;7.47;100.00
69257;BME280;56376;53.356;-1.748;2023-03-01T14:19:46;100865.88;;;7.32;100.00
69257;BME280;56376;53.356;-1.748;2023-03-01T14:22:22;100869.34;;;7.25;100.00
69257;BME280;56376;53.356;-1.748;2023-03-01T14:25:01;100865.00;;;7.18;100.00
69257;BME280;56376;53.356;-1.748;2023-03-01T14:27:35;100851.16;;;7.05;100.00
69257;BME280;56376;53.356;-1.748;2023-03-01T14:30:02;100853.75;;;7.00;100.00
69257;BME280;56376;53.356;-1.748;2023-03-01T14:32:31;100840.81;;;6.99;100.00